sensor_id;sensor_type;location;lat;lon;timestamp;pressure;altitude;pressure_sealevel;temperature;humidity
78117;BME280;69042;59.120;37.904;2023-04-15T00:01:28;101930.22;;;1.61;30.59
78117;BME280;69042;59.120;37.904;2023-04-15T00:03:56;101928.44;;;1.59;30.77
78117;BME280;69042;59.120;37.904;2023-04-15T00:06:22;101930.13;;;1.57;30.72
78117;BME280;69042;59.120;37.904;2023-04-15T00:08:49;101937.91;;;1.60;30.46
78117;BME280;69042;59.120;37.904;2023-04-15T00:11:16;101938.75;;;1.59;30.39
78117;BME280;69042;59.120;37.904;2023-04-15T00:13:43;101938.69;;;1.56;30.81
78117;BME280;69042;59.120;37.904;2023-04-15T00:16:09;101945.53;;;1.55;30.57
78117;BME280;69042;59.120;37.904;2023-04-15T00:18:36;101945.50;;;1.54;30.30
78117;BME280;69042;59.120;37.904;2023-04-15T00:21:03;101947.25;;;1.55;30.84
78117;BME280;69042;59.120;37.904;2023-04-15T00:23:30;101942.88;;;1.52;30.60
78117;BME280;69042;59.120;37.904;2023-04-15T00:25:56;101948.03;;;1.52;30.53
78117;BME280;69042;59.120;37.904;2023-04-15T00:28:23;101950.66;;;1.54;30.88
78117;BME280;69042;59.120;37.904;2023-04-15T00:30:49;101955.81;;;1.54;30.28
78117;BME280;69042;59.120;37.904;2023-04-15T00:33:15;101961.00;;;1.55;30.61
78117;BME280;69042;59.120;37.904;2023-04-15T00:35:41;101955.81;;;1.54;30.79
78117;BME280;69042;59.120;37.904;2023-04-15T00:38:08;101963.50;;;1.52;30.75
78117;BME280;69042;59.120;37.904;2023-04-15T00:40:34;101959.16;;;1.50;30.39
78117;BME280;69042;59.120;37.904;2023-04-15T00:43:00;101957.38;;;1.49;30.44
78117;BME280;69042;59.120;37.904;2023-04-15T00:45:27;101963.38;;;1.48;30.75
78117;BME280;69042;59.120;37.904;2023-04-15T00:47:54;101964.22;;;1.47;30.83
78117;BME280;69042;59.120;37.904;2023-04-15T00:50:45;101962.47;;;1.45;30.89
78117;BME280;69042;59.120;37.904;2023-04-15T00:53:11;101968.50;;;1.46;30.36
78117;BME280;69042;59.120;37.904;2023-04-15T00:55:38;101965.91;;;1.44;30.56
78117;BME280;69042;59.120;37.904;2023-04-15T00:58:04;101971.00;;;1.43;30.81
78117;BME280;69042;59.120;37.904;2023-04-15T01:00:31;101975.31;;;1.44;30.51
78117;BME280;69042;59.120;37.904;2023-04-15T01:02:58;101977.88;;;1.44;30.99
78117;BME280;69042;59.120;37.904;2023-04-15T01:05:24;101974.44;;;1.43;30.57
78117;BME280;69042;59.120;37.904;2023-04-15T01:07:50;101975.31;;;1.44;30.68
78117;BME280;69042;59.120;37.904;2023-04-15T01:10:16;101977.06;;;1.45;30.36
78117;BME280;69042;59.120;37.904;2023-04-15T01:12:43;101974.50;;;1.45;30.57
78117;BME280;69042;59.120;37.904;2023-04-15T01:15:10;101979.56;;;1.42;30.82
78117;BME280;69042;59.120;37.904;2023-04-15T01:17:36;101978.69;;;1.41;30.88
78117;BME280;69042;59.120;37.904;2023-04-15T01:20:06;101982.06;;;1.39;30.71
78117;BME280;69042;59.120;37.904;2023-04-15T01:22:35;101988.00;;;1.36;31.41
78117;BME280;69042;59.120;37.904;2023-04-15T01:25:06;101981.88;;;1.31;31.01
78117;BME280;69042;59.120;37.904;2023-04-15T01:27:36;101986.97;;;1.30;30.99
78117;BME280;69042;59.120;37.904;2023-04-15T01:30:05;101998.13;;;1.30;31.42
78117;BME280;69042;59.120;37.904;2023-04-15T01:32:32;101997.22;;;1.28;31.04
78117;BME280;69042;59.120;37.904;2023-04-15T01:35:17;101996.28;;;1.24;31.59
78117;BME280;69042;59.120;37.904;2023-04-15T01:37:47;101991.00;;;1.20;31.61
78117;BME280;69042;59.120;37.904;2023-04-15T01:40:17;101995.25;;;1.18;31.39
78117;BME280;69042;59.120;37.904;2023-04-15T01:42:45;101999.44;;;1.14;31.50
78117;BME280;69042;59.120;37.904;2023-04-15T01:45:15;102005.38;;;1.12;31.50
78117;BME280;69042;59.120;37.904;2023-04-15T01:47:46;102001.00;;;1.09;31.62
78117;BME280;69042;59.120;37.904;2023-04-15T01:50:15;101997.53;;;1.07;31.71
78117;BME280;69042;59.120;37.904;2023-04-15T01:52:43;102009.44;;;1.03;31.77
78117;BME280;69042;59.120;37.904;2023-04-15T01:55:12;102005.06;;;1.01;32.16
78117;BME280;69042;59.120;37.904;2023-04-15T01:57:40;102011.88;;;0.99;31.63
78117;BME280;69042;59.120;37.904;2023-04-15T02:00:08;102017.00;;;0.97;31.85
78117;BME280;69042;59.120;37.904;2023-04-15T02:02:41;102016.09;;;0.95;31.62
78117;BME280;69042;59.120;37.904;2023-04-15T02:05:09;102015.22;;;0.95;31.90
78117;BME280;69042;59.120;37.904;2023-04-15T02:07:37;102013.47;;;0.94;32.09
78117;BME280;69042;59.120;37.904;2023-04-15T02:10:05;102011.69;;;0.91;32.30
78117;BME280;69042;59.120;37.904;2023-04-15T02:12:32;102020.19;;;0.89;32.12
78117;BME280;69042;59.120;37.904;2023-04-15T02:15:00;102016.69;;;0.87;32.01
78117;BME280;69042;59.120;37.904;2023-04-15T02:17:27;102026.13;;;0.86;32.28
78117;BME280;69042;59.120;37.904;2023-04-15T02:19:55;102019.22;;;0.85;32.52
78117;BME280;69042;59.120;37.904;2023-04-15T02:22:23;102017.47;;;0.84;32.29
78117;BME280;69042;59.120;37.904;2023-04-15T02:24:52;102020.09;;;0.86;32.33
78117;BME280;69042;59.120;37.904;2023-04-15T02:27:19;102027.00;;;0.87;32.64
78117;BME280;69042;59.120;37.904;2023-04-15T02:29:51;102022.66;;;0.86;32.44
78117;BME280;69042;59.120;37.904;2023-04-15T02:32:18;102027.91;;;0.89;32.44
78117;BME280;69042;59.120;37.904;2023-04-15T02:34:50;102026.16;;;0.88;32.67
78117;BME280;69042;59.120;37.904;2023-04-15T02:37:18;102035.56;;;0.87;32.49
78117;BME280;69042;59.120;37.904;2023-04-15T02:39:46;102032.19;;;0.88;32.81
78117;BME280;69042;59.120;37.904;2023-04-15T02:42:16;102036.50;;;0.89;32.50
78117;BME280;69042;59.120;37.904;2023-04-15T02:44:44;102034.78;;;0.90;32.73
78117;BME280;69042;59.120;37.904;2023-04-15T02:47:12;102040.84;;;0.90;32.36
78117;BME280;69042;59.120;37.904;2023-04-15T02:49:46;102040.91;;;0.93;32.83
78117;BME280;69042;59.120;37.904;2023-04-15T02:52:14;102033.19;;;0.93;33.07
78117;BME280;69042;59.120;37.904;2023-04-15T02:54:42;102040.97;;;0.95;32.66
78117;BME280;69042;59.120;37.904;2023-04-15T02:57:10;102045.31;;;0.97;32.79
78117;BME280;69042;59.120;37.904;2023-04-15T02:59:40;102044.53;;;1.00;32.80
78117;BME280;69042;59.120;37.904;2023-04-15T03:02:08;102048.88;;;1.02;32.88
78117;BME280;69042;59.120;37.904;2023-04-15T03:04:36;102042.13;;;1.06;32.95
78117;BME280;69042;59.120;37.904;2023-04-15T03:07:04;102053.38;;;1.10;32.64
78117;BME280;69042;59.120;37.904;2023-04-15T03:09:32;102050.00;;;1.12;32.72
78117;BME280;69042;59.120;37.904;2023-04-15T03:12:03;102054.38;;;1.15;32.96
78117;BME280;69042;59.120;37.904;2023-04-15T03:14:30;102057.84;;;1.17;33.43
78117;BME280;69042;59.120;37.904;2023-04-15T03:16:57;102055.38;;;1.20;33.20
78117;BME280;69042;59.120;37.904;2023-04-15T03:19:25;102052.94;;;1.24;32.70
78117;BME280;69042;59.120;37.904;2023-04-15T03:21:53;102056.44;;;1.28;33.11
78117;BME280;69042;59.120;37.904;2023-04-15T03:24:21;102066.91;;;1.34;32.85
78117;BME280;69042;59.120;37.904;2023-04-15T03:26:49;102060.97;;;1.37;32.94
78117;BME280;69042;59.120;37.904;2023-04-15T03:29:19;102066.25;;;1.41;33.09
78117;BME280;69042;59.120;37.904;2023-04-15T03:31:47;102070.66;;;1.45;33.35
78117;BME280;69042;59.120;37.904;2023-04-15T03:34:14;102067.34;;;1.50;33.07
78117;BME280;69042;59.120;37.904;2023-04-15T03:36:41;102072.56;;;1.53;33.07
78117;BME280;69042;59.120;37.904;2023-04-15T03:39:09;102079.53;;;1.57;32.51
78117;BME280;69042;59.120;37.904;2023-04-15T03:41:36;102073.69;;;1.62;32.77
78117;BME280;69042;59.120;37.904;2023-04-15T03:44:03;102079.88;;;1.69;32.94
78117;BME280;69042;59.120;37.904;2023-04-15T03:46:31;102076.63;;;1.76;32.68
78117;BME280;69042;59.120;37.904;2023-04-15T03:48:58;102082.81;;;1.83;32.94
78117;BME280;69042;59.120;37.904;2023-04-15T03:51:25;102084.66;;;1.88;32.83
78117;BME280;69042;59.120;37.904;2023-04-15T03:53:52;102096.78;;;1.93;32.80
78117;BME280;69042;59.120;37.904;2023-04-15T03:56:20;102091.75;;;1.97;32.93
78117;BME280;69042;59.120;37.904;2023-04-15T03:58:48;102083.34;;;2.04;32.98
78117;BME280;69042;59.120;37.904;2023-04-15T04:01:16;102088.66;;;2.11;33.19
78117;BME280;69042;59.120;37.904;2023-04-15T04:03:44;102093.97;;;2.17;32.24
78117;BME280;69042;59.120;37.904;2023-04-15T04:06:12;102094.88;;;2.19;32.50
78117;BME280;69042;59.120;37.904;2023-04-15T04:08:40;102101.06;;;2.27;32.36
78117;BME280;69042;59.120;37.904;2023-04-15T04:11:08;102099.50;;;2.34;32.91
78117;BME280;69042;59.120;37.904;2023-04-15T04:13:35;102097.03;;;2.37;32.03
78117;BME280;69042;59.120;37.904;2023-04-15T04:16:04;102100.47;;;2.37;32.10
78117;BME280;69042;59.120;37.904;2023-04-15T04:18:32;102098.03;;;2.43;32.33
78117;BME280;69042;59.120;37.904;2023-04-15T04:21:01;102107.56;;;2.47;32.75
78117;BME280;69042;59.120;37.904;2023-04-15T04:23:29;102103.31;;;2.49;32.51
78117;BME280;69042;59.120;37.904;2023-04-15T04:25:57;102108.53;;;2.51;32.39
78117;BME280;69042;59.120;37.904;2023-04-15T04:28:24;102112.94;;;2.55;32.62
78117;BME280;69042;59.120;37.904;2023-04-15T04:30:51;102107.88;;;2.60;32.36
78117;BME280;69042;59.120;37.904;2023-04-15T04:33:19;102108.88;;;2.66;31.87
78117;BME280;69042;59.120;37.904;2023-04-15T04:35:47;102101.34;;;2.76;32.45
78117;BME280;69042;59.120;37.904;2023-04-15T04:38:14;102105.75;;;2.80;32.18
78117;BME280;69042;59.120;37.904;2023-04-15T04:40:41;102097.25;;;2.85;32.35
78117;BME280;69042;59.120;37.904;2023-04-15T04:43:09;102103.34;;;2.89;31.80
78117;BME280;69042;59.120;37.904;2023-04-15T04:45:37;102100.00;;;2.93;32.63
78117;BME280;69042;59.120;37.904;2023-04-15T04:48:05;102109.53;;;2.97;32.38
78117;BME280;69042;59.120;37.904;2023-04-15T04:50:34;102107.94;;;3.02;32.36
78117;BME280;69042;59.120;37.904;2023-04-15T04:53:02;102100.31;;;3.08;33.03
78117;BME280;69042;59.120;37.904;2023-04-15T04:55:29;102107.31;;;3.14;32.12
78117;BME280;69042;59.120;37.904;2023-04-15T04:57:58;102109.13;;;3.20;32.16
78117;BME280;69042;59.120;37.904;2023-04-15T05:00:26;102107.53;;;3.25;31.99
78117;BME280;69042;59.120;37.904;2023-04-15T05:02:54;102105.06;;;3.31;32.46
78117;BME280;69042;59.120;37.904;2023-04-15T05:05:22;102113.78;;;3.36;31.82
78117;BME280;69042;59.120;37.904;2023-04-15T05:07:50;102113.84;;;3.39;32.08
78117;BME280;69042;59.120;37.904;2023-04-15T05:10:19;102115.69;;;3.45;31.77
78117;BME280;69042;59.120;37.904;2023-04-15T05:12:48;102115.81;;;3.52;31.92
78117;BME280;69042;59.120;37.904;2023-04-15T05:15:15;102115.09;;;3.60;32.47
78117;BME280;69042;59.120;37.904;2023-04-15T05:17:42;102114.38;;;3.67;32.17
78117;BME280;69042;59.120;37.904;2023-04-15T05:20:11;102108.50;;;3.74;32.29
78117;BME280;69042;59.120;37.904;2023-04-15T05:22:40;102111.16;;;3.80;31.89
78117;BME280;69042;59.120;37.904;2023-04-15T05:25:08;102113.00;;;3.86;31.34
78117;BME280;69042;59.120;37.904;2023-04-15T05:27:37;102110.50;;;3.90;32.00
78117;BME280;69042;59.120;37.904;2023-04-15T05:30:05;102109.66;;;3.93;31.63
78117;BME280;69042;59.120;37.904;2023-04-15T05:32:33;102117.53;;;3.99;31.57
78117;BME280;69042;59.120;37.904;2023-04-15T05:35:00;102110.72;;;4.04;31.16
78117;BME280;69042;59.120;37.904;2023-04-15T05:37:29;102108.28;;;4.13;31.63
78117;BME280;69042;59.120;37.904;2023-04-15T05:39:56;102110.13;;;4.19;31.75
78117;BME280;69042;59.120;37.904;2023-04-15T05:42:25;102109.38;;;4.26;31.71
78117;BME280;69042;59.120;37.904;2023-04-15T05:44:54;102100.84;;;4.33;31.41
78117;BME280;69042;59.120;37.904;2023-04-15T05:47:22;102111.31;;;4.40;31.28
78117;BME280;69042;59.120;37.904;2023-04-15T05:49:50;102109.66;;;4.45;30.90
78117;BME280;69042;59.120;37.904;2023-04-15T05:52:18;102115.78;;;4.51;31.31
78117;BME280;69042;59.120;37.904;2023-04-15T05:54:45;102115.00;;;4.57;31.43
78117;BME280;69042;59.120;37.904;2023-04-15T05:57:13;102111.63;;;4.61;31.01
78117;BME280;69042;59.120;37.904;2023-04-15T05:59:40;102111.75;;;4.69;30.96
78117;BME280;69042;59.120;37.904;2023-04-15T06:02:10;102108.34;;;4.74;30.75
78117;BME280;69042;59.120;37.904;2023-04-15T06:04:37;102108.41;;;4.79;30.47
78117;BME280;69042;59.120;37.904;2023-04-15T06:07:06;102111.97;;;4.84;30.90
78117;BME280;69042;59.120;37.904;2023-04-15T06:09:33;102113.72;;;4.88;30.95
78117;BME280;69042;59.120;37.904;2023-04-15T06:12:02;102119.00;;;4.94;30.49
78117;BME280;69042;59.120;37.904;2023-04-15T06:14:31;102109.56;;;4.99;30.63
78117;BME280;69042;59.120;37.904;2023-04-15T06:16:59;102113.94;;;5.04;30.70
78117;BME280;69042;59.120;37.904;2023-04-15T06:19:31;102113.16;;;5.09;30.03
78117;BME280;69042;59.120;37.904;2023-04-15T06:21:59;102109.78;;;5.16;30.49
78117;BME280;69042;59.120;37.904;2023-04-15T06:24:28;102114.13;;;5.19;30.14
78117;BME280;69042;59.120;37.904;2023-04-15T06:26:55;102115.03;;;5.24;30.29
78117;BME280;69042;59.120;37.904;2023-04-15T06:29:23;102109.97;;;5.32;30.15
78117;BME280;69042;59.120;37.904;2023-04-15T06:31:52;102115.22;;;5.39;29.98
78117;BME280;69042;59.120;37.904;2023-04-15T06:34:20;102109.25;;;5.47;30.02
78117;BME280;69042;59.120;37.904;2023-04-15T06:36:48;102111.91;;;5.51;29.87
78117;BME280;69042;59.120;37.904;2023-04-15T06:39:17;102110.22;;;5.55;29.79
78117;BME280;69042;59.120;37.904;2023-04-15T06:41:44;102112.00;;;5.60;29.86
78117;BME280;69042;59.120;37.904;2023-04-15T06:44:17;102112.03;;;5.63;29.67
78117;BME280;69042;59.120;37.904;2023-04-15T06:46:44;102112.94;;;5.66;29.56
78117;BME280;69042;59.120;37.904;2023-04-15T06:49:13;102116.41;;;5.69;29.63
78117;BME280;69042;59.120;37.904;2023-04-15T06:51:44;102113.88;;;5.74;29.63
78117;BME280;69042;59.120;37.904;2023-04-15T06:54:11;102111.34;;;5.80;29.32
78117;BME280;69042;59.120;37.904;2023-04-15T06:56:40;102117.41;;;5.82;29.20
78117;BME280;69042;59.120;37.904;2023-04-15T06:59:08;102116.59;;;5.86;29.12
78117;BME280;69042;59.120;37.904;2023-04-15T07:01:36;102117.47;;;5.90;29.07
78117;BME280;69042;59.120;37.904;2023-04-15T07:04:04;102114.91;;;5.91;29.27
78117;BME280;69042;59.120;37.904;2023-04-15T07:06:32;102115.75;;;5.92;29.06
78117;BME280;69042;59.120;37.904;2023-04-15T07:09:00;102114.94;;;5.94;29.17
78117;BME280;69042;59.120;37.904;2023-04-15T07:11:28;102117.63;;;6.02;29.11
78117;BME280;69042;59.120;37.904;2023-04-15T07:13:57;102119.41;;;6.06;29.00
78117;BME280;69042;59.120;37.904;2023-04-15T07:16:25;102115.09;;;6.10;29.03
78117;BME280;69042;59.120;37.904;2023-04-15T07:18:56;102111.69;;;6.15;28.85
78117;BME280;69042;59.120;37.904;2023-04-15T07:21:24;102118.69;;;6.22;28.75
78117;BME280;69042;59.120;37.904;2023-04-15T07:23:51;102109.19;;;6.28;28.67
78117;BME280;69042;59.120;37.904;2023-04-15T07:26:19;102113.59;;;6.36;28.39
78117;BME280;69042;59.120;37.904;2023-04-15T07:28:48;102112.75;;;6.40;28.70
78117;BME280;69042;59.120;37.904;2023-04-15T07:31:15;102115.41;;;6.48;28.48
78117;BME280;69042;59.120;37.904;2023-04-15T07:33:44;102112.00;;;6.55;28.42
78117;BME280;69042;59.120;37.904;2023-04-15T07:36:13;102109.44;;;6.63;28.12
78117;BME280;69042;59.120;37.904;2023-04-15T07:38:42;102112.97;;;6.71;28.01
78117;BME280;69042;59.120;37.904;2023-04-15T07:41:10;102114.72;;;6.77;27.86
78117;BME280;69042;59.120;37.904;2023-04-15T07:43:38;102122.53;;;6.84;27.71
78117;BME280;69042;59.120;37.904;2023-04-15T07:46:06;102121.72;;;6.90;27.40
78117;BME280;69042;59.120;37.904;2023-04-15T07:48:33;102123.50;;;6.97;27.54
78117;BME280;69042;59.120;37.904;2023-04-15T07:51:01;102114.84;;;7.04;27.58
78117;BME280;69042;59.120;37.904;2023-04-15T07:53:30;102119.25;;;7.12;27.33
78117;BME280;69042;59.120;37.904;2023-04-15T07:55:59;102109.75;;;7.18;27.38
78117;BME280;69042;59.120;37.904;2023-04-15T07:58:27;102114.94;;;7.24;27.27
78117;BME280;69042;59.120;37.904;2023-04-15T08:00:54;102118.44;;;7.33;27.01
78117;BME280;69042;59.120;37.904;2023-04-15T08:03:25;102117.59;;;7.40;26.86
78117;BME280;69042;59.120;37.904;2023-04-15T08:05:56;102113.28;;;7.46;26.90
78117;BME280;69042;59.120;37.904;2023-04-15T08:08:25;102116.78;;;7.53;26.75
78117;BME280;69042;59.120;37.904;2023-04-15T08:10:53;102105.53;;;7.60;26.70
78117;BME280;69042;59.120;37.904;2023-04-15T08:13:21;102104.69;;;7.69;26.80
78117;BME280;69042;59.120;37.904;2023-04-15T08:16:22;102109.03;;;7.81;26.67
78117;BME280;69042;59.120;37.904;2023-04-15T08:18:51;102115.97;;;7.94;26.60
78117;BME280;69042;59.120;37.904;2023-04-15T08:21:20;102109.06;;;8.04;26.57
78117;BME280;69042;59.120;37.904;2023-04-15T08:23:49;102102.97;;;8.12;26.45
78117;BME280;69042;59.120;37.904;2023-04-15T08:26:18;102101.25;;;8.18;26.14
78117;BME280;69042;59.120;37.904;2023-04-15T08:28:45;102102.97;;;8.25;26.53
78117;BME280;69042;59.120;37.904;2023-04-15T08:31:16;102104.69;;;8.30;26.46
78117;BME280;69042;59.120;37.904;2023-04-15T08:33:48;102096.03;;;8.34;26.42
78117;BME280;69042;59.120;37.904;2023-04-15T08:36:18;102092.53;;;8.39;25.95
78117;BME280;69042;59.120;37.904;2023-04-15T08:38:46;102088.22;;;8.45;26.20
78117;BME280;69042;59.120;37.904;2023-04-15T08:41:21;102092.56;;;8.48;25.45
78117;BME280;69042;59.120;37.904;2023-04-15T08:44:03;102083.88;;;8.52;25.81
78117;BME280;69042;59.120;37.904;2023-04-15T08:46:33;102088.19;;;8.58;25.49
78117;BME280;69042;59.120;37.904;2023-04-15T08:49:04;102089.97;;;8.60;26.00
78117;BME280;69042;59.120;37.904;2023-04-15T08:51:31;102083.88;;;8.63;25.50
78117;BME280;69042;59.120;37.904;2023-04-15T08:54:01;102084.72;;;8.63;25.42
78117;BME280;69042;59.120;37.904;2023-04-15T08:56:31;102082.97;;;8.68;25.64
78117;BME280;69042;59.120;37.904;2023-04-15T08:58:59;102079.47;;;8.75;25.24
78117;BME280;69042;59.120;37.904;2023-04-15T09:01:26;102073.38;;;8.83;25.34
78117;BME280;69042;59.120;37.904;2023-04-15T09:03:55;102077.69;;;8.88;25.30
78117;BME280;69042;59.120;37.904;2023-04-15T09:06:24;102068.13;;;8.95;25.11
78117;BME280;69042;59.120;37.904;2023-04-15T09:08:53;102062.88;;;8.98;25.07
78117;BME280;69042;59.120;37.904;2023-04-15T09:11:22;102068.97;;;9.02;25.56
78117;BME280;69042;59.120;37.904;2023-04-15T09:13:55;102065.44;;;9.09;25.36
78117;BME280;69042;59.120;37.904;2023-04-15T09:16:22;102056.72;;;9.13;24.99
78117;BME280;69042;59.120;37.904;2023-04-15T09:18:51;102055.00;;;9.16;25.23
78117;BME280;69042;59.120;37.904;2023-04-15T09:21:18;102057.56;;;9.20;24.83
78117;BME280;69042;59.120;37.904;2023-04-15T09:23:59;102056.69;;;9.24;24.97
78117;BME280;69042;59.120;37.904;2023-04-15T09:26:36;102058.41;;;9.28;25.14
78117;BME280;69042;59.120;37.904;2023-04-15T09:29:09;102052.28;;;9.33;24.72
78117;BME280;69042;59.120;37.904;2023-04-15T09:31:47;102043.56;;;9.36;24.94
78117;BME280;69042;59.120;37.904;2023-04-15T09:34:15;102048.78;;;9.39;24.98
78117;BME280;69042;59.120;37.904;2023-04-15T09:36:54;102049.59;;;9.44;24.92
78117;BME280;69042;59.120;37.904;2023-04-15T09:39:21;102044.34;;;9.49;25.01
78117;BME280;69042;59.120;37.904;2023-04-15T09:42:08;102038.22;;;9.54;24.64
78117;BME280;69042;59.120;37.904;2023-04-15T09:44:36;102035.59;;;9.56;24.49
78117;BME280;69042;59.120;37.904;2023-04-15T10:13:07;102021.22;;;10.12;24.85
78117;BME280;69042;59.120;37.904;2023-04-15T10:15:35;102021.19;;;10.15;24.83
78117;BME280;69042;59.120;37.904;2023-04-15T10:18:03;102023.72;;;10.21;24.74
78117;BME280;69042;59.120;37.904;2023-04-15T10:20:31;102016.75;;;10.25;24.77
78117;BME280;69042;59.120;37.904;2023-04-15T10:23:00;102022.84;;;10.24;24.54
78117;BME280;69042;59.120;37.904;2023-04-15T10:25:28;102021.13;;;10.25;24.39
78117;BME280;69042;59.120;37.904;2023-04-15T10:27:56;102012.38;;;10.26;24.15
78117;BME280;69042;59.120;37.904;2023-04-15T10:30:24;102014.09;;;10.27;24.09
78117;BME280;69042;59.120;37.904;2023-04-15T10:32:52;102003.63;;;10.33;24.22
78117;BME280;69042;59.120;37.904;2023-04-15T10:35:21;102006.28;;;10.31;24.46
78117;BME280;69042;59.120;37.904;2023-04-15T10:37:49;102002.75;;;10.34;24.31
78117;BME280;69042;59.120;37.904;2023-04-15T10:42:55;101998.19;;;10.53;24.55
78117;BME280;69042;59.120;37.904;2023-04-15T10:45:30;101994.53;;;10.68;24.47
78117;BME280;69042;59.120;37.904;2023-04-15T10:48:01;101989.97;;;10.82;24.57
78117;BME280;69042;59.120;37.904;2023-04-15T10:50:32;101992.31;;;11.02;24.50
78117;BME280;69042;59.120;37.904;2023-04-15T10:53:02;101978.94;;;11.23;24.30
78117;BME280;69042;59.120;37.904;2023-04-15T10:55:32;101987.28;;;11.49;24.34
78117;BME280;69042;59.120;37.904;2023-04-15T10:58:01;101986.84;;;11.75;24.19
78117;BME280;69042;59.120;37.904;2023-04-15T11:00:30;101975.94;;;12.02;24.02
78117;BME280;69042;59.120;37.904;2023-04-15T11:03:08;101977.97;;;12.33;24.10
78117;BME280;69042;59.120;37.904;2023-04-15T11:08:10;101969.28;;;13.13;23.80
78117;BME280;69042;59.120;37.904;2023-04-15T11:13:14;101962.25;;;13.87;23.32
78117;BME280;69042;59.120;37.904;2023-04-15T11:15:46;101960.28;;;14.27;22.97
78117;BME280;69042;59.120;37.904;2023-04-15T11:18:25;101962.78;;;14.64;22.61
78117;BME280;69042;59.120;37.904;2023-04-15T11:21:05;101953.75;;;15.01;22.38
78117;BME280;69042;59.120;37.904;2023-04-15T11:23:38;101955.22;;;15.38;22.63
78117;BME280;69042;59.120;37.904;2023-04-15T11:26:08;101935.25;;;15.84;22.05
78117;BME280;69042;59.120;37.904;2023-04-15T11:28:43;101943.41;;;16.27;21.84
78117;BME280;69042;59.120;37.904;2023-04-15T11:31:13;101936.81;;;16.62;21.77
78117;BME280;69042;59.120;37.904;2023-04-15T11:33:59;101936.59;;;17.14;21.44
78117;BME280;69042;59.120;37.904;2023-04-15T11:36:29;101942.94;;;17.52;21.09
78117;BME280;69042;59.120;37.904;2023-04-15T11:38:58;101929.28;;;17.83;21.39
78117;BME280;69042;59.120;37.904;2023-04-15T11:41:26;101920.25;;;18.08;21.53
78117;BME280;69042;59.120;37.904;2023-04-15T11:43:53;101920.59;;;18.40;21.52
78117;BME280;69042;59.120;37.904;2023-04-15T11:46:27;101926.41;;;18.86;21.17
78117;BME280;69042;59.120;37.904;2023-04-15T11:48:55;101911.78;;;19.32;20.60
78117;BME280;69042;59.120;37.904;2023-04-15T11:51:22;101907.72;;;19.95;20.21
78117;BME280;69042;59.120;37.904;2023-04-15T11:53:49;101901.56;;;20.59;20.11
78117;BME280;69042;59.120;37.904;2023-04-15T11:56:23;101904.75;;;21.28;19.61
78117;BME280;69042;59.120;37.904;2023-04-15T11:58:52;101894.84;;;22.05;19.13
78117;BME280;69042;59.120;37.904;2023-04-15T12:01:19;101893.00;;;22.63;19.11
78117;BME280;69042;59.120;37.904;2023-04-15T12:03:45;101882.25;;;23.32;18.49
78117;BME280;69042;59.120;37.904;2023-04-15T12:06:22;101878.59;;;23.98;17.97
78117;BME280;69042;59.120;37.904;2023-04-15T12:09:16;101884.34;;;24.79;17.98
78117;BME280;69042;59.120;37.904;2023-04-15T12:11:46;101880.31;;;25.68;17.66
78117;BME280;69042;59.120;37.904;2023-04-15T12:14:27;101877.66;;;26.35;16.85
78117;BME280;69042;59.120;37.904;2023-04-15T12:16:57;101872.72;;;26.63;16.36
78117;BME280;69042;59.120;37.904;2023-04-15T12:19:26;101868.41;;;26.83;16.12
78117;BME280;69042;59.120;37.904;2023-04-15T12:24:34;101856.44;;;27.40;15.93
78117;BME280;69042;59.120;37.904;2023-04-15T12:27:02;101869.19;;;27.90;15.04
78117;BME280;69042;59.120;37.904;2023-04-15T12:29:30;101861.81;;;28.33;14.87
78117;BME280;69042;59.120;37.904;2023-04-15T12:34:52;101854.38;;;29.04;14.84
78117;BME280;69042;59.120;37.904;2023-04-15T12:37:19;101853.31;;;29.54;14.35
78117;BME280;69042;59.120;37.904;2023-04-15T12:39:47;101848.78;;;30.02;14.19
78117;BME280;69042;59.120;37.904;2023-04-15T12:42:14;101844.56;;;30.45;13.83
78117;BME280;69042;59.120;37.904;2023-04-15T12:44:41;101847.50;;;30.69;13.35
78117;BME280;69042;59.120;37.904;2023-04-15T12:47:08;101837.72;;;30.86;13.76
78117;BME280;69042;59.120;37.904;2023-04-15T12:49:35;101835.00;;;31.04;13.07
78117;BME280;69042;59.120;37.904;2023-04-15T12:52:03;101839.63;;;31.12;12.79
78117;BME280;69042;59.120;37.904;2023-04-15T12:54:30;101837.44;;;31.16;12.90
78117;BME280;69042;59.120;37.904;2023-04-15T12:56:57;101831.06;;;31.17;12.69
78117;BME280;69042;59.120;37.904;2023-04-15T12:59:24;101825.44;;;31.36;12.85
78117;BME280;69042;59.120;37.904;2023-04-15T13:01:51;101828.22;;;31.79;12.95
78117;BME280;69042;59.120;37.904;2023-04-15T13:04:18;101827.34;;;32.04;12.08
78117;BME280;69042;59.120;37.904;2023-04-15T13:06:45;101829.25;;;31.86;11.97
78117;BME280;69042;59.120;37.904;2023-04-15T13:09:11;101833.03;;;31.59;12.52
78117;BME280;69042;59.120;37.904;2023-04-15T13:11:37;101826.13;;;31.38;12.47
78117;BME280;69042;59.120;37.904;2023-04-15T13:14:05;101825.34;;;31.20;11.86
78117;BME280;69042;59.120;37.904;2023-04-15T13:16:32;101824.28;;;31.12;11.94
78117;BME280;69042;59.120;37.904;2023-04-15T13:18:59;101825.03;;;31.05;12.55
78117;BME280;69042;59.120;37.904;2023-04-15T13:21:26;101814.91;;;31.25;12.09
78117;BME280;69042;59.120;37.904;2023-04-15T13:23:53;101812.09;;;31.35;11.83
78117;BME280;69042;59.120;37.904;2023-04-15T13:26:19;101815.00;;;31.15;11.73
78117;BME280;69042;59.120;37.904;2023-04-15T13:28:46;101815.03;;;30.79;11.71
78117;BME280;69042;59.120;37.904;2023-04-15T13:31:12;101811.38;;;30.44;12.26
78117;BME280;69042;59.120;37.904;2023-04-15T13:33:38;101802.19;;;30.09;12.04
78117;BME280;69042;59.120;37.904;2023-04-15T13:36:05;101807.19;;;29.67;12.20